createdAt,value
2017-11-22T00:00:22.995Z,12.90
2017-11-22T00:02:16.257Z,11.70
2017-11-22T00:03:16.189Z,12.20
2017-11-22T00:05:09.468Z,13.10
2017-11-22T00:06:09.382Z,12.80
2017-11-22T00:08:02.669Z,12.90
2017-11-22T00:09:02.574Z,12.40
2017-11-22T00:10:55.832Z,11.90
2017-11-22T00:11:55.773Z,11.90
2017-11-22T00:13:49.047Z,12.80
2017-11-22T00:14:48.961Z,12.60
2017-11-22T00:16:42.223Z,12.90
2017-11-22T00:17:42.160Z,12.50
2017-11-22T00:19:35.434Z,11.80
2017-11-22T00:20:35.351Z,13.30
2017-11-22T00:22:28.631Z,12.30
2017-11-22T00:23:28.564Z,12.60
2017-11-22T00:25:21.841Z,12.10
2017-11-22T00:26:21.754Z,11.40
2017-11-22T00:28:15.034Z,11.90
2017-11-22T00:29:14.949Z,11.80
2017-11-22T00:31:08.209Z,12.70
2017-11-22T00:32:08.143Z,12.50
2017-11-22T00:34:01.425Z,12.30
2017-11-22T00:35:01.337Z,12.50
2017-11-22T00:36:54.598Z,11.60
2017-11-22T00:37:54.529Z,11.70
2017-11-22T00:39:47.803Z,12.20
2017-11-22T00:40:47.715Z,12.00
2017-11-22T00:42:41.010Z,11.70
2017-11-22T00:43:40.912Z,11.50
2017-11-22T00:45:34.190Z,13.70
2017-11-22T00:46:34.105Z,12.20
2017-11-22T00:48:27.396Z,12.60
2017-11-22T00:49:27.308Z,11.70
2017-11-22T00:51:20.575Z,12.60
2017-11-22T00:52:20.505Z,12.00
2017-11-22T00:54:13.786Z,12.10
2017-11-22T00:55:13.699Z,12.10
2017-11-22T00:57:06.959Z,12.00
2017-11-22T00:58:06.892Z,11.40
2017-11-22T01:00:00.178Z,12.20
2017-11-22T01:01:00.089Z,12.30
2017-11-22T01:02:53.388Z,11.70
2017-11-22T01:03:53.305Z,12.20
2017-11-22T01:05:46.584Z,12.20
2017-11-22T01:06:46.497Z,12.40
2017-11-22T01:08:39.776Z,11.60
2017-11-22T01:09:39.698Z,11.80
2017-11-22T01:11:32.953Z,11.40
2017-11-22T01:12:32.882Z,11.70
2017-11-22T01:14:26.160Z,12.20
2017-11-22T01:15:26.080Z,12.20
2017-11-22T01:17:19.386Z,12.10
2017-11-22T01:18:19.312Z,12.00
2017-11-22T01:20:12.591Z,11.80
2017-11-22T01:21:12.503Z,11.40
2017-11-22T01:23:05.767Z,11.40
2017-11-22T01:24:05.700Z,12.10
2017-11-22T01:25:58.977Z,12.00
2017-11-22T01:26:58.893Z,11.90
2017-11-22T01:28:52.165Z,12.20
2017-11-22T01:29:52.077Z,11.80
2017-11-22T01:31:45.375Z,11.40
2017-11-22T01:32:45.306Z,11.30
2017-11-22T01:34:38.593Z,11.60
2017-11-22T01:35:38.561Z,11.90
2017-11-22T01:37:31.829Z,11.80
2017-11-22T01:38:31.772Z,11.50
2017-11-22T01:40:25.104Z,11.50
2017-11-22T01:41:24.962Z,11.60
2017-11-22T01:43:18.339Z,11.90
2017-11-22T01:44:18.234Z,11.70
2017-11-22T01:46:11.514Z,11.70
2017-11-22T01:47:11.428Z,11.30
2017-11-22T01:49:04.702Z,11.80
2017-11-22T01:50:04.618Z,11.80
2017-11-22T01:51:57.873Z,10.60
2017-11-22T01:52:57.805Z,10.90
2017-11-22T01:54:51.084Z,10.70
2017-11-22T01:55:51.000Z,11.10
2017-11-22T01:57:44.260Z,11.90
2017-11-22T01:58:44.192Z,11.40
2017-11-22T02:00:37.473Z,11.20
2017-11-22T02:01:37.387Z,11.20
2017-11-22T02:03:30.650Z,11.60
2017-11-22T02:04:30.578Z,11.50
2017-11-22T02:06:23.861Z,10.50
2017-11-22T02:07:23.773Z,10.70
2017-11-22T02:09:17.046Z,10.90
2017-11-22T02:10:16.958Z,10.20
2017-11-22T02:12:10.221Z,11.00
2017-11-22T02:13:10.153Z,10.70
2017-11-22T02:15:03.432Z,11.20
2017-11-22T02:16:03.347Z,10.80
2017-11-22T02:17:56.608Z,10.80
2017-11-22T02:18:56.561Z,10.30
2017-11-22T02:20:49.824Z,10.10
2017-11-22T02:21:49.734Z,10.00
2017-11-22T02:23:43.011Z,9.70
2017-11-22T02:24:42.945Z,10.70
2017-11-22T02:26:36.241Z,10.30
2017-11-22T02:27:36.147Z,10.40
2017-11-22T02:29:29.427Z,10.30
2017-11-22T02:30:29.331Z,10.50
2017-11-22T02:32:22.595Z,11.20
2017-11-22T02:33:22.527Z,10.10
2017-11-22T02:35:15.808Z,10.40
2017-11-22T02:36:15.722Z,9.80
2017-11-22T02:38:08.985Z,10.30
2017-11-22T02:39:08.917Z,10.70
2017-11-22T02:41:02.200Z,10.30
2017-11-22T02:42:02.111Z,10.20
2017-11-22T02:43:55.371Z,9.00
2017-11-22T02:44:55.306Z,9.10
2017-11-22T02:46:48.588Z,9.20
2017-11-22T02:47:48.499Z,9.80
2017-11-22T02:49:41.769Z,8.60
2017-11-22T02:50:41.682Z,9.10
2017-11-22T02:52:34.947Z,9.10
2017-11-22T02:53:34.879Z,9.00
2017-11-22T02:55:28.158Z,9.20
2017-11-22T02:56:28.072Z,9.90
2017-11-22T02:58:21.372Z,8.80
2017-11-22T02:59:21.304Z,8.80
2017-11-22T03:01:14.585Z,8.60
2017-11-22T03:02:14.500Z,8.20
2017-11-22T03:04:07.763Z,9.00
2017-11-22T03:05:07.699Z,9.20
2017-11-22T03:07:00.975Z,8.50
2017-11-22T03:08:00.893Z,8.70
2017-11-22T03:09:54.169Z,8.90
2017-11-22T03:10:54.089Z,8.40
2017-11-22T03:12:47.375Z,8.30
2017-11-22T03:13:47.302Z,8.80
2017-11-22T03:15:40.582Z,8.10
2017-11-22T03:16:40.496Z,8.30
2017-11-22T03:18:33.768Z,8.10
2017-11-22T03:19:33.700Z,7.90
2017-11-22T03:21:26.982Z,8.00
2017-11-22T03:22:26.891Z,8.30
2017-11-22T03:24:20.155Z,7.90
2017-11-22T03:25:20.089Z,7.90
2017-11-22T03:27:13.391Z,7.40
2017-11-22T03:28:13.303Z,7.60
2017-11-22T03:30:06.589Z,7.70
2017-11-22T03:31:06.501Z,7.90
2017-11-22T03:32:59.762Z,8.00
2017-11-22T03:33:59.687Z,8.50
2017-11-22T03:35:53.968Z,7.90
2017-11-22T03:36:53.880Z,7.40
2017-11-22T03:38:47.142Z,7.70
2017-11-22T03:39:47.074Z,7.80
2017-11-22T03:41:40.354Z,7.50
2017-11-22T03:42:40.269Z,8.10
2017-11-22T03:44:33.531Z,8.40
2017-11-22T03:45:33.464Z,8.50
2017-11-22T03:47:26.746Z,8.50
2017-11-22T03:48:26.659Z,8.40
2017-11-22T03:50:19.942Z,8.30
2017-11-22T03:51:19.853Z,8.10
2017-11-22T03:53:13.122Z,8.30
2017-11-22T03:54:13.057Z,8.50
2017-11-22T03:56:06.338Z,8.00
2017-11-22T03:57:06.248Z,7.60
2017-11-22T03:58:59.516Z,8.80
2017-11-22T03:59:59.450Z,8.60
2017-11-22T04:01:52.733Z,8.50
2017-11-22T04:02:52.639Z,8.20
2017-11-22T04:04:45.902Z,7.90
2017-11-22T04:05:45.833Z,8.50
2017-11-22T04:07:39.115Z,8.60
2017-11-22T04:08:39.030Z,8.30
2017-11-22T04:10:32.392Z,8.40
2017-11-22T04:11:32.304Z,8.10
2017-11-22T04:13:25.505Z,8.30
2017-11-22T04:14:25.439Z,8.80
2017-11-22T04:16:18.716Z,7.70
2017-11-22T04:17:18.666Z,8.00
2017-11-22T04:19:11.896Z,8.10
2017-11-22T04:20:11.828Z,8.30
2017-11-22T04:22:05.231Z,8.20
2017-11-22T04:23:05.149Z,7.70
2017-11-22T04:24:58.411Z,8.30
2017-11-22T04:25:58.345Z,7.40
2017-11-22T04:27:51.622Z,8.10
2017-11-22T04:28:51.539Z,8.10
2017-11-22T04:30:44.818Z,7.60
2017-11-22T04:31:44.734Z,8.30
2017-11-22T04:33:37.995Z,8.10
2017-11-22T04:34:37.930Z,8.40
2017-11-22T04:36:31.257Z,8.70
2017-11-22T04:37:31.170Z,8.40
2017-11-22T04:39:24.427Z,8.30
2017-11-22T04:40:24.360Z,8.20
2017-11-22T04:42:17.638Z,8.30
2017-11-22T04:43:17.553Z,7.90
2017-11-22T04:45:10.815Z,7.70
2017-11-22T04:46:10.749Z,7.60
2017-11-22T04:48:04.032Z,7.40
2017-11-22T04:49:03.946Z,7.10
2017-11-22T04:50:57.226Z,7.10
2017-11-22T04:51:57.166Z,7.60
2017-11-22T04:53:50.403Z,7.10
2017-11-22T04:54:50.335Z,7.30
2017-11-22T04:56:43.617Z,7.70
2017-11-22T04:57:43.528Z,8.30
2017-11-22T04:59:36.793Z,7.20
2017-11-22T05:00:36.729Z,7.40
2017-11-22T05:02:31.004Z,8.00
2017-11-22T05:03:30.930Z,8.30
2017-11-22T05:05:24.180Z,8.60
2017-11-22T05:06:24.115Z,8.00
2017-11-22T05:08:17.395Z,7.90
2017-11-22T05:09:17.309Z,8.20
2017-11-22T05:11:10.591Z,7.40
2017-11-22T05:12:10.504Z,7.70
2017-11-22T05:14:03.771Z,7.50
2017-11-22T05:15:03.704Z,7.50
2017-11-22T05:16:56.991Z,7.40
2017-11-22T05:17:56.894Z,7.70
2017-11-22T05:19:50.164Z,7.90
2017-11-22T05:20:50.098Z,8.10
2017-11-22T05:22:43.392Z,8.10
2017-11-22T05:23:43.318Z,9.00
2017-11-22T05:25:36.583Z,8.00
2017-11-22T05:26:36.505Z,8.30
2017-11-22T05:28:29.783Z,8.60
2017-11-22T05:29:29.700Z,9.30
2017-11-22T05:31:22.982Z,9.00
2017-11-22T05:32:22.894Z,8.40
2017-11-22T05:34:16.158Z,7.90
2017-11-22T05:35:16.092Z,8.40
2017-11-22T05:37:09.392Z,8.20
2017-11-22T05:38:09.306Z,8.40
2017-11-22T05:40:02.569Z,8.00
2017-11-22T05:41:02.501Z,8.40
2017-11-22T05:42:55.803Z,8.60
2017-11-22T05:43:55.705Z,8.60
2017-11-22T05:45:48.947Z,10.10
2017-11-22T05:46:48.879Z,9.50
2017-11-22T05:48:42.150Z,8.70
2017-11-22T05:49:42.062Z,9.50
2017-11-22T05:51:35.401Z,10.10
2017-11-22T05:52:35.307Z,9.50
2017-11-22T05:54:28.562Z,9.10
2017-11-22T05:55:28.485Z,9.20
2017-11-22T05:57:21.758Z,11.70
2017-11-22T05:58:21.669Z,11.30
2017-11-22T06:00:14.934Z,10.30
2017-11-22T06:01:14.854Z,9.70
2017-11-22T06:03:08.123Z,9.90
2017-11-22T06:04:08.039Z,10.10
2017-11-22T06:06:01.379Z,10.20
2017-11-22T06:07:01.311Z,9.90
2017-11-22T06:08:54.584Z,9.00
2017-11-22T06:09:54.497Z,9.40
2017-11-22T06:11:47.769Z,9.30
2017-11-22T06:12:47.681Z,8.60
2017-11-22T06:14:40.934Z,8.70
2017-11-22T06:15:40.866Z,8.50
2017-11-22T06:17:34.137Z,9.00
2017-11-22T06:18:34.051Z,8.50
2017-11-22T06:20:27.380Z,8.70
2017-11-22T06:21:27.312Z,9.10
2017-11-22T06:23:20.577Z,8.40
2017-11-22T06:24:20.489Z,8.50
2017-11-22T06:26:13.745Z,8.30
2017-11-22T06:27:13.674Z,8.20
2017-11-22T06:29:06.945Z,8.20
2017-11-22T06:30:06.903Z,8.80
2017-11-22T06:32:00.181Z,8.50
2017-11-22T06:33:00.044Z,8.00
2017-11-22T06:34:53.375Z,7.90
2017-11-22T06:35:53.306Z,8.20
2017-11-22T06:37:46.579Z,7.90
2017-11-22T06:38:46.489Z,8.40
2017-11-22T06:40:39.745Z,7.80
2017-11-22T06:41:39.676Z,8.40
2017-11-22T06:43:32.946Z,8.20
2017-11-22T06:44:32.860Z,7.70
2017-11-22T06:46:26.116Z,8.30
2017-11-22T06:47:26.039Z,8.50
2017-11-22T06:49:19.394Z,8.20
2017-11-22T06:50:19.308Z,8.50
2017-11-22T06:52:12.582Z,8.40
2017-11-22T06:53:12.492Z,8.40
2017-11-22T06:55:05.746Z,8.80
2017-11-22T06:56:05.681Z,8.90
2017-11-22T06:57:58.998Z,8.60
2017-11-22T06:58:58.862Z,8.30
2017-11-22T07:00:52.116Z,8.50
2017-11-22T07:01:52.050Z,8.30
2017-11-22T07:03:45.392Z,9.10
2017-11-22T07:04:45.308Z,9.50
2017-11-22T07:06:38.564Z,8.20
2017-11-22T07:07:38.491Z,8.90
2017-11-22T07:09:31.882Z,8.50
2017-11-22T07:10:31.676Z,8.60
2017-11-22T07:12:25.028Z,8.90
2017-11-22T07:13:24.943Z,8.90
2017-11-22T07:15:18.206Z,8.60
2017-11-22T07:16:18.218Z,8.80
2017-11-22T07:18:11.402Z,9.10
2017-11-22T07:19:11.317Z,9.40
2017-11-22T07:21:04.569Z,9.20
2017-11-22T07:22:04.500Z,9.10
2017-11-22T07:23:57.771Z,8.60
2017-11-22T07:24:57.700Z,8.60
2017-11-22T07:26:50.939Z,9.40
2017-11-22T07:27:50.872Z,8.40
2017-11-22T07:29:44.159Z,9.30
2017-11-22T07:30:44.060Z,9.10
2017-11-22T07:32:37.393Z,8.60
2017-11-22T07:33:37.307Z,9.40
2017-11-22T07:35:30.558Z,9.30
2017-11-22T07:36:30.491Z,8.80
2017-11-22T07:38:23.763Z,9.00
2017-11-22T07:39:23.675Z,9.20
2017-11-22T07:41:16.930Z,8.90
2017-11-22T07:42:16.863Z,8.40
2017-11-22T07:44:10.137Z,9.20
2017-11-22T07:45:10.055Z,8.80
2017-11-22T07:47:03.391Z,8.80
2017-11-22T07:48:03.314Z,9.00
2017-11-22T07:49:56.584Z,9.00
2017-11-22T07:50:56.497Z,9.10
2017-11-22T07:52:49.804Z,9.00
2017-11-22T07:53:49.717Z,9.50
2017-11-22T07:55:42.970Z,9.10
2017-11-22T07:56:42.905Z,9.90
2017-11-22T07:58:36.178Z,9.80
2017-11-22T07:59:36.089Z,8.90
2017-11-22T08:01:29.346Z,9.40
2017-11-22T08:02:29.273Z,9.10
2017-11-22T08:04:22.554Z,9.80
2017-11-22T08:05:22.459Z,10.20
2017-11-22T08:07:15.714Z,10.00
2017-11-22T08:08:15.646Z,9.20
2017-11-22T08:10:08.918Z,9.60
2017-11-22T08:11:08.831Z,9.80
2017-11-22T08:13:02.106Z,9.20
2017-11-22T08:14:02.018Z,9.00
2017-11-22T08:15:55.279Z,9.90
2017-11-22T08:16:55.204Z,9.60
2017-11-22T08:18:48.475Z,10.20
2017-11-22T08:19:48.388Z,9.50
2017-11-22T08:21:41.643Z,9.60
2017-11-22T08:22:41.576Z,9.20
2017-11-22T08:24:34.847Z,9.30
2017-11-22T08:25:34.761Z,8.80
2017-11-22T08:27:28.015Z,9.20
2017-11-22T08:28:27.952Z,9.70
2017-11-22T08:30:21.219Z,9.70
2017-11-22T08:31:21.133Z,9.50
2017-11-22T08:33:14.406Z,9.50
2017-11-22T08:34:14.319Z,9.20
2017-11-22T08:36:07.573Z,8.90
2017-11-22T08:37:07.506Z,9.50
2017-11-22T08:39:00.778Z,9.80
2017-11-22T08:40:00.694Z,9.70
2017-11-22T08:41:53.942Z,9.60
2017-11-22T08:42:53.883Z,9.50
2017-11-22T08:44:47.151Z,9.80
2017-11-22T08:45:47.067Z,9.80
2017-11-22T08:47:40.381Z,9.80
2017-11-22T08:48:40.309Z,10.00
2017-11-22T08:50:33.582Z,9.40
2017-11-22T08:51:33.495Z,9.70
2017-11-22T08:53:26.786Z,9.60
2017-11-22T08:54:26.697Z,9.20
2017-11-22T08:56:19.959Z,9.50
2017-11-22T08:57:19.892Z,9.40
2017-11-22T08:59:13.162Z,9.30
2017-11-22T09:00:13.077Z,8.90
2017-11-22T09:02:06.376Z,9.90
2017-11-22T09:03:06.310Z,9.40
2017-11-22T09:04:59.587Z,9.40
2017-11-22T09:05:59.490Z,10.00
2017-11-22T09:07:52.750Z,10.00
2017-11-22T09:08:52.680Z,10.30
2017-11-22T09:10:45.954Z,10.70
2017-11-22T09:11:45.868Z,9.70
2017-11-22T09:13:39.142Z,10.50
2017-11-22T09:14:39.055Z,9.30
2017-11-22T09:16:32.373Z,9.60
2017-11-22T09:17:32.312Z,9.90
2017-11-22T09:19:25.581Z,8.80
2017-11-22T09:20:25.497Z,9.30
2017-11-22T09:22:18.760Z,9.80
2017-11-22T09:23:18.689Z,9.90
2017-11-22T09:25:11.979Z,9.90
2017-11-22T09:26:11.876Z,9.80
2017-11-22T09:28:05.130Z,9.80
2017-11-22T09:29:05.065Z,10.30
2017-11-22T09:30:58.400Z,9.60
2017-11-22T09:31:58.311Z,9.50
2017-11-22T09:33:51.581Z,10.30
2017-11-22T09:34:51.498Z,10.30
2017-11-22T09:36:44.751Z,9.70
2017-11-22T09:37:44.688Z,10.00
2017-11-22T09:39:37.960Z,10.50
2017-11-22T09:40:37.876Z,10.50
2017-11-22T09:42:31.130Z,9.60
2017-11-22T09:43:31.077Z,9.60
2017-11-22T09:45:24.392Z,10.20
2017-11-22T09:46:24.307Z,9.80
2017-11-22T09:48:17.563Z,9.80
2017-11-22T09:49:17.497Z,9.80
2017-11-22T09:51:11.028Z,10.00
2017-11-22T09:52:10.942Z,11.00
2017-11-22T09:54:04.217Z,10.50
2017-11-22T09:55:04.133Z,10.40
2017-11-22T09:56:57.394Z,10.40
2017-11-22T09:57:57.332Z,10.30
2017-11-22T09:59:50.599Z,10.30
2017-11-22T10:00:50.518Z,10.10
2017-11-22T10:02:43.777Z,10.00
2017-11-22T10:03:43.703Z,10.20
2017-11-22T10:05:36.985Z,10.80
2017-11-22T10:06:36.895Z,10.70
2017-11-22T10:08:30.153Z,10.20
2017-11-22T10:09:30.085Z,10.40
2017-11-22T10:11:23.362Z,10.10
2017-11-22T10:12:23.285Z,10.40
2017-11-22T10:14:16.552Z,10.80
2017-11-22T10:15:16.472Z,11.20
2017-11-22T10:17:09.725Z,10.30
2017-11-22T10:18:09.661Z,10.50
2017-11-22T10:20:02.934Z,11.50
2017-11-22T10:21:02.848Z,10.90
2017-11-22T10:22:57.109Z,11.60
2017-11-22T10:23:57.040Z,10.60
2017-11-22T10:25:50.398Z,10.70
2017-11-22T10:26:50.306Z,11.40
2017-11-22T10:28:43.567Z,10.90
2017-11-22T10:29:43.499Z,11.40
2017-11-22T10:31:36.776Z,11.10
2017-11-22T10:32:36.698Z,11.00
2017-11-22T10:34:29.990Z,10.80
2017-11-22T10:35:29.881Z,11.10
2017-11-22T10:37:23.137Z,10.90
2017-11-22T10:38:23.070Z,10.60
2017-11-22T10:40:16.392Z,10.70
2017-11-22T10:41:16.311Z,10.20
2017-11-22T10:43:09.597Z,11.40
2017-11-22T10:44:09.550Z,10.70
2017-11-22T10:46:02.817Z,11.00
2017-11-22T10:47:02.735Z,11.50
2017-11-22T10:48:55.991Z,11.20
2017-11-22T10:49:55.923Z,11.30
2017-11-22T10:51:49.199Z,11.40
2017-11-22T10:52:49.111Z,11.50
2017-11-22T10:54:42.394Z,11.50
2017-11-22T10:55:42.308Z,11.80
2017-11-22T10:57:35.577Z,11.50
2017-11-22T10:58:35.514Z,11.60
2017-11-22T11:00:29.784Z,11.80
2017-11-22T11:01:29.700Z,11.70
2017-11-22T11:03:22.965Z,11.80
2017-11-22T11:04:22.901Z,11.90
2017-11-22T11:06:16.282Z,11.40
2017-11-22T11:07:16.087Z,10.80
2017-11-22T11:09:09.340Z,11.30
2017-11-22T11:10:09.316Z,11.90
2017-11-22T11:12:02.552Z,11.50
2017-11-22T11:13:02.465Z,11.70
2017-11-22T11:14:55.859Z,11.60
2017-11-22T11:15:55.654Z,11.50
2017-11-22T11:17:48.915Z,11.50
2017-11-22T11:18:48.848Z,11.70
2017-11-22T11:20:42.128Z,12.20
2017-11-22T11:21:42.047Z,12.00
2017-11-22T11:23:35.305Z,11.90
2017-11-22T11:24:35.234Z,12.70
2017-11-22T11:26:28.513Z,12.70
2017-11-22T11:27:28.433Z,12.20
2017-11-22T11:29:21.682Z,11.40
2017-11-22T11:30:21.616Z,11.50
2017-11-22T11:32:14.904Z,12.50
2017-11-22T11:33:14.817Z,12.80
2017-11-22T11:35:08.090Z,11.90
2017-11-22T11:36:08.011Z,12.10
2017-11-22T11:38:01.269Z,11.90
2017-11-22T11:39:01.206Z,12.20
2017-11-22T11:40:54.475Z,13.00
2017-11-22T11:41:54.389Z,12.20
2017-11-22T11:43:47.645Z,12.10
2017-11-22T11:44:47.582Z,12.40
2017-11-22T11:46:40.852Z,11.60
2017-11-22T11:47:40.775Z,12.30
2017-11-22T11:49:34.030Z,11.60
2017-11-22T11:50:33.969Z,11.80
2017-11-22T11:52:27.246Z,12.10
2017-11-22T11:53:27.162Z,12.20
2017-11-22T11:55:21.438Z,12.20
2017-11-22T11:56:21.352Z,12.20
2017-11-22T11:58:14.616Z,11.90
2017-11-22T11:59:14.544Z,11.40
2017-11-22T12:01:07.824Z,11.30
2017-11-22T12:02:07.736Z,11.70
2017-11-22T12:04:00.995Z,11.40
2017-11-22T12:05:00.929Z,10.80
2017-11-22T12:06:54.203Z,10.90
2017-11-22T12:07:54.119Z,10.90
2017-11-22T12:09:47.384Z,11.60
2017-11-22T12:10:47.325Z,11.60
2017-11-22T12:12:40.615Z,12.40
2017-11-22T12:13:40.531Z,10.90
2017-11-22T12:15:33.806Z,10.90
2017-11-22T12:16:33.723Z,10.70
2017-11-22T12:18:26.978Z,10.80
2017-11-22T12:19:26.912Z,10.60
2017-11-22T12:21:20.196Z,11.30
2017-11-22T12:22:20.116Z,11.90
2017-11-22T12:24:13.379Z,11.30
2017-11-22T12:25:13.313Z,12.10
2017-11-22T12:27:06.600Z,10.40
2017-11-22T12:28:06.520Z,10.70
2017-11-22T12:29:59.793Z,10.60
2017-11-22T12:30:59.728Z,12.00
2017-11-22T12:32:53.012Z,10.00
2017-11-22T12:33:52.929Z,10.40
2017-11-22T12:35:47.215Z,11.00
2017-11-22T12:36:47.132Z,11.20
2017-11-22T12:38:40.396Z,11.00
2017-11-22T12:39:40.332Z,10.80
2017-11-22T12:41:34.607Z,11.10
2017-11-22T12:42:34.523Z,10.20
2017-11-22T12:44:28.774Z,10.50
2017-11-22T12:45:28.712Z,10.00
2017-11-22T12:47:22.000Z,10.20
2017-11-22T12:48:21.914Z,10.40
2017-11-22T12:50:15.181Z,11.00
2017-11-22T12:51:15.118Z,10.80
2017-11-22T12:53:08.413Z,10.90
2017-11-22T12:54:08.333Z,10.40
2017-11-22T12:56:01.614Z,10.10
2017-11-22T12:57:01.532Z,10.40
2017-11-22T12:58:54.792Z,10.40
2017-11-22T12:59:54.724Z,10.60
2017-11-22T13:01:48.015Z,11.50
2017-11-22T13:02:47.931Z,10.30
2017-11-22T13:04:41.204Z,10.30
2017-11-22T13:05:41.149Z,10.90
2017-11-22T13:07:34.428Z,10.00
2017-11-22T13:08:34.342Z,10.00
2017-11-22T13:10:27.611Z,10.70
2017-11-22T13:11:27.547Z,10.30
2017-11-22T13:13:20.831Z,10.90
2017-11-22T13:14:20.749Z,11.20
2017-11-22T13:16:14.040Z,10.90
2017-11-22T13:17:13.956Z,11.20
2017-11-22T13:19:07.228Z,10.70
2017-11-22T13:20:07.162Z,10.30
2017-11-22T13:22:00.464Z,10.60
2017-11-22T13:23:00.366Z,10.30
2017-11-22T13:24:53.633Z,10.30
2017-11-22T13:25:53.568Z,10.80
2017-11-22T13:27:46.854Z,10.60
2017-11-22T13:28:46.772Z,10.70
2017-11-22T13:30:40.036Z,10.50
2017-11-22T13:31:39.975Z,11.00
2017-11-22T13:33:33.256Z,10.30
2017-11-22T13:34:33.174Z,10.20
2017-11-22T13:36:26.462Z,11.00
2017-11-22T13:37:26.392Z,10.30
2017-11-22T13:39:19.634Z,10.10
2017-11-22T13:40:19.568Z,10.30
2017-11-22T13:42:12.856Z,9.90
2017-11-22T13:43:12.772Z,9.70
2017-11-22T13:45:06.043Z,10.30
2017-11-22T13:46:05.978Z,10.20
2017-11-22T13:47:59.258Z,10.10
2017-11-22T13:48:59.178Z,10.20
2017-11-22T13:50:52.444Z,10.80
2017-11-22T13:51:52.379Z,10.40
2017-11-22T13:53:45.771Z,10.10
2017-11-22T13:54:45.582Z,10.00
2017-11-22T13:56:38.883Z,9.20
2017-11-22T13:57:38.795Z,9.60
2017-11-22T13:59:32.052Z,9.70
2017-11-22T14:00:31.987Z,10.10
2017-11-22T14:02:25.274Z,9.50
2017-11-22T14:03:25.187Z,9.50
2017-11-22T14:05:18.445Z,9.40
2017-11-22T14:06:18.380Z,9.50
2017-11-22T14:08:11.669Z,9.90
2017-11-22T14:09:11.586Z,9.40
2017-11-22T14:11:04.850Z,9.40
2017-11-22T14:12:04.787Z,9.70
2017-11-22T14:13:58.061Z,9.40
2017-11-22T14:14:57.977Z,9.40
2017-11-22T14:16:51.253Z,8.90
2017-11-22T14:17:51.175Z,9.20
2017-11-22T14:19:44.429Z,9.40
2017-11-22T14:20:44.362Z,9.10
2017-11-22T14:22:37.641Z,9.50
2017-11-22T14:23:37.558Z,9.20
2017-11-22T14:25:30.827Z,8.70
2017-11-22T14:26:30.768Z,9.40
2017-11-22T14:28:24.038Z,8.90
2017-11-22T14:29:23.953Z,8.80
2017-11-22T14:31:17.226Z,9.00
2017-11-22T14:32:17.144Z,9.00
2017-11-22T14:34:10.404Z,9.00
2017-11-22T14:35:10.337Z,9.30
2017-11-22T14:37:03.613Z,9.40
2017-11-22T14:38:03.528Z,8.70
2017-11-22T14:39:56.785Z,9.10
2017-11-22T14:40:56.718Z,8.50
2017-11-22T14:42:49.572Z,8.50
2017-11-22T14:43:49.485Z,8.60
2017-11-22T14:45:42.747Z,9.30
2017-11-22T14:46:42.670Z,10.70
2017-11-22T14:48:35.964Z,11.10
2017-11-22T14:49:35.882Z,9.10
2017-11-22T14:51:29.194Z,9.60
2017-11-22T14:52:29.080Z,8.40
2017-11-22T14:54:22.382Z,7.90
2017-11-22T14:55:22.312Z,8.60
2017-11-22T14:57:15.595Z,8.50
2017-11-22T14:58:15.513Z,8.60
2017-11-22T15:00:08.780Z,8.60
2017-11-22T15:01:08.716Z,8.20
2017-11-22T15:03:02.004Z,9.20
2017-11-22T15:04:01.918Z,8.20
2017-11-22T15:05:55.174Z,7.50
2017-11-22T15:06:55.116Z,8.10
2017-11-22T15:08:48.395Z,8.40
2017-11-22T15:09:48.315Z,8.70
2017-11-22T15:11:41.623Z,8.30
2017-11-22T15:12:41.537Z,8.70
2017-11-22T15:14:34.812Z,7.60
2017-11-22T15:15:34.739Z,8.30
2017-11-22T15:17:28.031Z,8.50
2017-11-22T15:18:27.941Z,8.70
2017-11-22T15:20:21.201Z,8.10
2017-11-22T15:21:21.132Z,7.70
2017-11-22T15:23:14.422Z,8.00
2017-11-22T15:24:14.337Z,8.30
2017-11-22T15:26:07.598Z,8.00
2017-11-22T15:27:07.535Z,7.70
2017-11-22T15:29:00.813Z,8.10
2017-11-22T15:30:00.733Z,7.90
2017-11-22T15:31:54.034Z,7.60
2017-11-22T15:32:53.945Z,7.60
2017-11-22T15:34:47.194Z,8.10
2017-11-22T15:35:47.128Z,7.70
2017-11-22T15:37:40.412Z,8.50
2017-11-22T15:38:40.327Z,7.30
2017-11-22T15:40:34.601Z,7.10
2017-11-22T15:41:34.531Z,8.30
2017-11-22T15:43:27.810Z,7.90
2017-11-22T15:44:27.725Z,8.50
2017-11-22T15:46:20.996Z,7.80
2017-11-22T15:47:20.925Z,7.50
2017-11-22T15:49:14.213Z,7.80
2017-11-22T15:50:14.129Z,8.00
2017-11-22T15:52:07.409Z,8.00
2017-11-22T15:53:07.326Z,8.30
2017-11-22T15:55:00.606Z,8.40
2017-11-22T15:56:00.525Z,8.60
2017-11-22T15:57:53.802Z,8.90
2017-11-22T15:58:53.722Z,8.60
2017-11-22T16:00:47.985Z,9.50
2017-11-22T16:01:47.921Z,10.10
2017-11-22T16:03:41.206Z,9.20
2017-11-22T16:04:41.117Z,8.90
2017-11-22T16:06:34.405Z,9.00
2017-11-22T16:07:34.342Z,9.30
2017-11-22T16:09:27.619Z,8.80
2017-11-22T16:10:27.538Z,9.40
2017-11-22T16:12:21.840Z,9.20
2017-11-22T16:13:21.750Z,8.90
2017-11-22T16:15:16.019Z,8.60
2017-11-22T16:16:15.954Z,8.60
2017-11-22T16:18:09.241Z,8.60
2017-11-22T16:19:09.149Z,8.40
2017-11-22T16:21:02.414Z,7.80
2017-11-22T16:22:02.350Z,7.50
2017-11-22T16:23:55.620Z,7.70
2017-11-22T16:24:55.534Z,7.70
2017-11-22T16:26:48.790Z,8.00
2017-11-22T16:27:48.720Z,8.30
2017-11-22T16:29:42.000Z,8.40
2017-11-22T16:30:41.915Z,8.60
2017-11-22T16:32:35.193Z,8.70
2017-11-22T16:33:35.102Z,8.40
2017-11-22T16:35:28.378Z,8.20
2017-11-22T16:36:28.315Z,8.20
2017-11-22T16:38:21.584Z,7.50
2017-11-22T16:39:21.496Z,7.90
2017-11-22T16:41:14.751Z,7.80
2017-11-22T16:42:14.682Z,7.70
2017-11-22T16:44:07.952Z,7.80
2017-11-22T16:45:07.868Z,8.20
2017-11-22T16:47:01.123Z,7.60
2017-11-22T16:48:01.055Z,7.60
2017-11-22T16:49:54.393Z,6.90
2017-11-22T16:50:54.317Z,7.10
2017-11-22T16:52:48.585Z,7.70
2017-11-22T16:53:48.500Z,7.40
2017-11-22T16:55:41.752Z,7.10
2017-11-22T16:56:41.684Z,6.50
2017-11-22T16:58:34.962Z,7.40
2017-11-22T16:59:34.877Z,7.40
2017-11-22T17:01:28.131Z,6.90
2017-11-22T17:02:28.063Z,6.70
2017-11-22T17:04:21.339Z,7.10
2017-11-22T17:05:21.254Z,6.60
2017-11-22T17:07:14.512Z,7.80
2017-11-22T17:08:14.472Z,7.40
2017-11-22T17:10:07.893Z,7.80
2017-11-22T17:11:07.653Z,7.70
2017-11-22T17:13:00.975Z,6.80
2017-11-22T17:14:00.848Z,6.90
2017-11-22T17:15:54.122Z,6.60
2017-11-22T17:16:54.055Z,7.20
2017-11-22T17:18:47.676Z,6.60
2017-11-22T17:19:48.912Z,6.80
2017-11-22T17:21:40.546Z,6.30
2017-11-22T17:22:40.473Z,6.10
2017-11-22T17:24:33.745Z,7.00
2017-11-22T17:25:33.662Z,6.40
2017-11-22T17:27:27.417Z,6.80
2017-11-22T17:28:27.238Z,7.00
2017-11-22T17:30:20.577Z,6.30
2017-11-22T17:31:20.463Z,6.70
2017-11-22T17:33:14.770Z,6.60
2017-11-22T17:34:14.685Z,6.60
2017-11-22T17:36:07.939Z,6.80
2017-11-22T17:37:07.994Z,6.60
2017-11-22T17:39:01.329Z,6.40
2017-11-22T17:40:01.383Z,6.70
2017-11-22T17:41:54.875Z,6.80
2017-11-22T17:42:54.720Z,6.80
2017-11-22T17:44:47.433Z,6.90
2017-11-22T17:45:47.561Z,6.90
2017-11-22T17:47:40.581Z,6.90
2017-11-22T17:48:40.501Z,6.40
2017-11-22T17:50:34.586Z,6.30
2017-11-22T17:51:33.730Z,6.40
2017-11-22T17:53:26.866Z,6.30
2017-11-22T17:54:26.557Z,6.80
2017-11-22T17:56:19.562Z,6.80
2017-11-22T17:57:19.433Z,6.70
2017-11-22T17:59:12.679Z,6.90
2017-11-22T18:00:12.776Z,7.10
2017-11-22T18:02:08.823Z,7.00
2017-11-22T18:03:08.915Z,7.40
2017-11-22T18:05:01.540Z,7.10
2017-11-22T18:06:01.466Z,6.90
2017-11-22T18:07:55.805Z,6.70
2017-11-22T18:08:55.871Z,6.80
2017-11-22T18:10:48.968Z,6.30
2017-11-22T18:11:48.862Z,6.40
2017-11-22T18:13:42.734Z,6.60
2017-11-22T18:14:42.494Z,6.80
2017-11-22T18:16:35.426Z,7.20
2017-11-22T18:17:35.042Z,7.00
2017-11-22T18:19:28.295Z,6.90
2017-11-22T18:20:27.931Z,6.40
2017-11-22T18:22:21.114Z,6.90
2017-11-22T18:23:21.157Z,6.40
2017-11-22T18:25:15.387Z,6.90
2017-11-22T18:26:14.344Z,6.60
2017-11-22T18:28:07.526Z,6.50
2017-11-22T18:29:07.427Z,6.60
2017-11-22T18:31:00.691Z,6.50
2017-11-22T18:32:00.624Z,6.50
2017-11-22T18:33:54.669Z,7.00
2017-11-22T18:34:54.139Z,6.70
2017-11-22T18:36:47.563Z,6.80
2017-11-22T18:37:47.510Z,6.40
2017-11-22T18:39:41.355Z,6.90
2017-11-22T18:40:40.816Z,7.30
2017-11-22T18:42:33.878Z,6.20
2017-11-22T18:43:33.810Z,6.90
2017-11-22T18:45:27.146Z,6.90
2017-11-22T18:46:27.056Z,6.70
2017-11-22T18:48:20.413Z,6.40
2017-11-22T18:49:20.396Z,5.70
2017-11-22T18:51:13.670Z,5.90
2017-11-22T18:52:13.561Z,6.60
2017-11-22T18:54:06.888Z,6.30
2017-11-22T18:55:06.735Z,5.70
2017-11-22T18:56:59.984Z,6.10
2017-11-22T18:57:59.893Z,6.30